Moor Row, United Kingdom
Current Conditions -  °F | °C
As of 9:20 AM on Monday 20 Oct 2014 (Local Time) from EGNS Reporting Station
Broken Clouds Broken Clouds  
Wind Chill: 54°   Ceiling: 1800
Heat Index: 54°   Visibility: 6mi
Dew Point: 50°   Wind: 21mph
Humidity: 88%   Direction: 250°WSW
Pressure: 29.85"   Gusts: NA
Location:  54.51°N, 3.54°W
Report Text: EGNS 200820Z 25018KT 220V290 9999 FEW015 BKN018 12/10 Q1011 NOSIG
Loading
Personal Weather Stations






























Interactive Weather Map
Tropical Storm Tracking
New forecast layout! Learn more

10-Day Weather Forecast

Advertisements
Track Severe Weather on mobile